createdAt,value
2019-02-19T00:01:10.392Z,150.65
2019-02-19T00:03:37.264Z,152.50
2019-02-19T00:06:04.123Z,150.70
2019-02-19T00:08:30.964Z,151.78
2019-02-19T00:10:57.846Z,149.47
2019-02-19T00:13:24.809Z,148.45
2019-02-19T00:15:51.684Z,150.32
2019-02-19T00:18:18.667Z,150.07
2019-02-19T00:20:45.605Z,150.72
2019-02-19T00:23:12.360Z,150.42
2019-02-19T00:25:39.116Z,150.87
2019-02-19T00:28:06.116Z,149.93
2019-02-19T00:30:33.020Z,150.32
2019-02-19T00:33:00.135Z,149.20
2019-02-19T00:35:27.082Z,149.40
2019-02-19T00:37:54.265Z,149.72
2019-02-19T00:40:21.279Z,148.65
2019-02-19T00:42:48.244Z,150.10
2019-02-19T00:45:16.950Z,150.32
2019-02-19T00:47:44.045Z,149.57
2019-02-19T00:50:10.788Z,149.32
2019-02-19T00:52:37.655Z,148.43
2019-02-19T00:55:04.620Z,149.85
2019-02-19T00:57:31.618Z,148.70
2019-02-19T00:59:58.504Z,147.78
2019-02-19T01:02:25.410Z,148.62
2019-02-19T01:04:52.403Z,148.47
2019-02-19T01:07:19.254Z,149.12
2019-02-19T01:09:46.301Z,149.23
2019-02-19T01:12:13.165Z,149.00
2019-02-19T01:14:40.141Z,148.87
2019-02-19T01:17:07.125Z,149.47
2019-02-19T01:19:34.000Z,149.85
2019-02-19T01:22:00.868Z,148.65
2019-02-19T01:24:27.760Z,148.13
2019-02-19T01:26:54.625Z,148.30
2019-02-19T01:29:21.381Z,148.82
2019-02-19T01:31:48.187Z,147.32
2019-02-19T01:34:15.174Z,148.55
2019-02-19T01:36:42.148Z,149.32
2019-02-19T01:39:09.032Z,148.00
2019-02-19T01:41:36.218Z,148.70
2019-02-19T01:44:03.186Z,150.00
2019-02-19T01:46:30.210Z,149.35
2019-02-19T01:48:57.105Z,148.78
2019-02-19T01:51:23.996Z,149.40
2019-02-19T01:53:50.865Z,147.02
2019-02-19T01:56:17.727Z,147.25
2019-02-19T01:58:44.736Z,148.30
2019-02-19T02:01:11.496Z,147.32
2019-02-19T02:03:38.261Z,147.93
2019-02-19T02:06:05.133Z,148.25
2019-02-19T02:08:31.912Z,146.70
2019-02-19T02:10:58.748Z,148.55
2019-02-19T02:13:25.708Z,146.55
2019-02-19T02:15:52.676Z,147.47
2019-02-19T02:18:19.637Z,147.60
2019-02-19T02:20:46.490Z,147.10
2019-02-19T02:23:13.354Z,147.47
2019-02-19T02:25:40.205Z,146.80
2019-02-19T02:28:07.062Z,146.35
2019-02-19T02:30:33.958Z,147.17
2019-02-19T02:33:00.847Z,146.75
2019-02-19T02:35:27.772Z,146.40
2019-02-19T02:37:54.749Z,146.77
2019-02-19T02:40:21.746Z,146.85
2019-02-19T02:42:48.455Z,147.00
2019-02-19T02:45:15.259Z,147.35
2019-02-19T02:47:42.104Z,146.15
2019-02-19T02:50:09.096Z,146.20
2019-02-19T02:52:36.009Z,147.47
2019-02-19T02:55:03.004Z,146.50
2019-02-19T02:57:30.082Z,145.50
2019-02-19T02:59:56.954Z,146.90
2019-02-19T03:02:23.833Z,145.77
2019-02-19T03:04:50.793Z,146.32
2019-02-19T03:07:31.682Z,146.95
2019-02-19T03:09:58.404Z,147.32
2019-02-19T03:12:25.456Z,146.57
2019-02-19T03:14:52.451Z,147.68
2019-02-19T03:17:19.182Z,147.17
2019-02-19T03:19:45.934Z,146.47
2019-02-19T03:46:31.340Z,146.93
2019-02-19T03:48:58.221Z,146.82
2019-02-19T03:51:25.173Z,147.10
2019-02-19T03:53:51.937Z,146.85
2019-02-19T03:56:18.902Z,147.47
2019-02-19T03:58:45.876Z,146.47
2019-02-19T04:01:12.637Z,147.62
2019-02-19T04:03:39.416Z,147.10
2019-02-19T04:06:06.228Z,147.10
2019-02-19T04:08:33.000Z,147.70
2019-02-19T04:10:59.969Z,146.85
2019-02-19T04:13:26.719Z,145.75
2019-02-19T04:15:53.698Z,148.20
2019-02-19T04:18:20.411Z,148.07
2019-02-19T04:20:47.214Z,148.10
2019-02-19T04:23:14.185Z,147.30
2019-02-19T04:25:40.936Z,147.57
2019-02-19T04:28:07.812Z,148.17
2019-02-19T04:30:34.701Z,147.37
2019-02-19T04:33:01.615Z,148.60
2019-02-19T04:35:28.646Z,149.45
2019-02-19T04:37:55.429Z,147.68
2019-02-19T04:40:22.269Z,148.75
2019-02-19T04:42:49.010Z,148.90
2019-02-19T04:45:16.102Z,148.35
2019-02-19T04:47:42.840Z,149.12
2019-02-19T04:50:09.752Z,147.60
2019-02-19T04:52:36.585Z,149.40
2019-02-19T04:55:03.587Z,149.80
2019-02-19T04:57:30.579Z,148.78
2019-02-19T04:59:57.335Z,147.90
2019-02-19T05:02:24.191Z,149.45
2019-02-19T05:04:51.028Z,147.95
2019-02-19T05:07:17.935Z,148.75
2019-02-19T05:09:44.722Z,148.65
2019-02-19T05:12:11.702Z,149.05
2019-02-19T05:14:38.585Z,150.20
2019-02-19T05:17:19.473Z,148.70
2019-02-19T05:19:48.487Z,149.15
2019-02-19T05:22:15.270Z,150.03
2019-02-19T05:24:42.137Z,148.78
2019-02-19T05:27:09.100Z,149.20
2019-02-19T05:29:35.945Z,149.27
2019-02-19T05:32:03.988Z,149.82
2019-02-19T05:34:30.936Z,149.77
2019-02-19T05:36:58.606Z,149.45
2019-02-19T05:39:25.525Z,148.93
2019-02-19T05:41:52.280Z,149.35
2019-02-19T05:44:19.253Z,149.77
2019-02-19T05:46:49.846Z,150.53
2019-02-19T05:49:14.711Z,150.82
2019-02-19T05:51:41.679Z,150.68
2019-02-19T05:54:08.424Z,151.12
2019-02-19T05:56:35.436Z,150.57
2019-02-19T05:59:02.173Z,148.62
2019-02-19T06:01:28.926Z,149.32
2019-02-19T06:03:55.909Z,150.62
2019-02-19T06:06:22.675Z,149.53
2019-02-19T06:08:49.505Z,149.93
2019-02-19T06:11:16.376Z,150.00
2019-02-19T06:13:43.118Z,151.30
2019-02-19T06:16:09.863Z,152.15
2019-02-19T06:18:36.898Z,152.78
2019-02-19T06:21:03.692Z,152.43
2019-02-19T06:23:30.671Z,150.62
2019-02-19T06:25:57.432Z,151.55
2019-02-19T06:28:24.437Z,150.55
2019-02-19T06:30:51.213Z,151.20
2019-02-19T06:33:18.125Z,152.15
2019-02-19T06:35:45.183Z,149.55
2019-02-19T06:38:11.964Z,154.10
2019-02-19T06:40:45.386Z,153.18
2019-02-19T06:46:20.695Z,150.38
2019-02-19T06:48:47.443Z,149.10
2019-02-19T06:51:14.193Z,150.03
2019-02-19T06:53:41.103Z,149.97
2019-02-19T06:56:07.948Z,149.07
2019-02-19T06:58:34.877Z,149.57
2019-02-19T07:01:01.653Z,150.45
2019-02-19T07:03:42.596Z,150.22
2019-02-19T07:06:09.343Z,149.35
2019-02-19T07:08:37.409Z,150.18
2019-02-19T07:11:04.148Z,150.25
2019-02-19T07:13:31.400Z,149.18
2019-02-19T07:15:58.139Z,150.07
2019-02-19T07:18:24.985Z,150.32
2019-02-19T07:20:51.777Z,149.87
2019-02-19T07:23:18.540Z,149.00
2019-02-19T07:25:45.474Z,150.82
2019-02-19T07:28:12.505Z,151.85
2019-02-19T07:30:39.280Z,151.45
2019-02-19T07:33:07.111Z,151.68
2019-02-19T07:35:34.154Z,151.95
2019-02-19T07:38:01.144Z,152.17
2019-02-19T07:40:27.984Z,150.87
2019-02-19T07:42:54.891Z,151.00
2019-02-19T07:45:21.659Z,152.82
2019-02-19T07:47:48.486Z,151.95
2019-02-19T07:50:16.346Z,150.65
2019-02-19T07:52:43.198Z,151.87
2019-02-19T07:55:09.976Z,150.95
2019-02-19T07:57:38.071Z,151.75
2019-02-19T08:00:05.365Z,150.60
2019-02-19T08:02:32.439Z,151.47
2019-02-19T08:04:59.194Z,152.60
2019-02-19T08:07:27.278Z,150.95
2019-02-19T08:09:54.125Z,150.72
2019-02-19T08:12:20.924Z,152.22
2019-02-19T08:14:47.796Z,154.12
2019-02-19T08:17:14.683Z,152.12
2019-02-19T08:19:41.493Z,151.70
2019-02-19T08:22:08.226Z,152.40
2019-02-19T08:24:34.965Z,151.50
2019-02-19T08:27:01.761Z,151.37
2019-02-19T08:29:28.477Z,151.82
2019-02-19T08:31:55.219Z,152.00
2019-02-19T08:34:22.148Z,152.65
2019-02-19T08:36:49.015Z,153.23
2019-02-19T08:39:15.832Z,151.93
2019-02-19T08:41:42.620Z,151.97
2019-02-19T08:44:09.461Z,152.75
2019-02-19T08:46:36.324Z,152.82
2019-02-19T08:49:03.123Z,151.50
2019-02-19T08:51:30.003Z,152.35
2019-02-19T08:53:56.873Z,152.50
2019-02-19T08:56:23.779Z,151.93
2019-02-19T08:58:50.520Z,154.80
2019-02-19T09:01:17.459Z,152.02
2019-02-19T09:03:44.211Z,153.12
2019-02-19T09:06:11.245Z,154.05
2019-02-19T09:08:39.310Z,151.85
2019-02-19T09:11:06.351Z,151.53
2019-02-19T09:13:33.310Z,150.53
2019-02-19T09:16:00.157Z,153.18
2019-02-19T09:18:27.082Z,154.10
2019-02-19T09:20:54.001Z,153.72
2019-02-19T09:23:20.746Z,151.85
2019-02-19T09:25:47.771Z,151.65
2019-02-19T09:28:14.552Z,153.78
2019-02-19T09:30:41.418Z,153.90
2019-02-19T09:33:08.213Z,152.65
2019-02-19T09:35:34.952Z,153.15
2019-02-19T09:38:01.989Z,152.35
2019-02-19T09:40:28.869Z,153.32
2019-02-19T09:42:55.837Z,155.18
2019-02-19T09:45:22.780Z,154.45
2019-02-19T09:47:49.760Z,153.60
2019-02-19T09:50:16.625Z,154.45
2019-02-19T09:52:43.480Z,153.55
2019-02-19T09:55:10.400Z,152.93
2019-02-19T09:57:37.354Z,154.20
2019-02-19T10:00:06.137Z,155.75
2019-02-19T10:02:34.539Z,152.85
2019-02-19T10:05:01.285Z,154.27
2019-02-19T10:07:28.040Z,155.37
2019-02-19T10:09:54.921Z,153.82
2019-02-19T10:12:21.656Z,153.35
2019-02-19T10:14:48.421Z,152.65
2019-02-19T10:17:15.361Z,154.35
2019-02-19T10:19:42.206Z,154.25
2019-02-19T10:22:08.918Z,153.80
2019-02-19T10:24:35.728Z,154.45
2019-02-19T10:27:02.604Z,153.60
2019-02-19T10:29:29.466Z,153.27
2019-02-19T10:31:56.529Z,154.55
2019-02-19T10:34:23.293Z,155.67
2019-02-19T10:36:50.138Z,153.82
2019-02-19T10:39:16.942Z,154.70
2019-02-19T10:41:43.767Z,153.80
2019-02-19T10:44:10.529Z,154.95
2019-02-19T10:46:37.550Z,155.35
2019-02-19T10:49:04.589Z,155.60
2019-02-19T10:51:31.352Z,154.97
2019-02-19T10:53:58.204Z,153.23
2019-02-19T10:56:25.177Z,155.20
2019-02-19T10:58:52.253Z,155.37
2019-02-19T11:01:19.187Z,154.42
2019-02-19T11:03:45.941Z,157.35
2019-02-19T11:06:12.962Z,157.03
2019-02-19T11:08:39.742Z,157.75
2019-02-19T11:11:06.687Z,156.35
2019-02-19T11:13:33.456Z,156.12
2019-02-19T11:16:00.744Z,156.87
2019-02-19T11:18:34.895Z,159.05
2019-02-19T11:21:01.891Z,156.22
2019-02-19T11:23:28.653Z,155.43
2019-02-19T11:25:55.610Z,157.60
2019-02-19T11:28:22.480Z,157.57
2019-02-19T11:30:49.459Z,158.65
2019-02-19T11:33:16.299Z,156.40
2019-02-19T11:35:43.112Z,156.97
2019-02-19T11:38:09.873Z,155.67
2019-02-19T11:40:36.735Z,157.47
2019-02-19T11:43:03.831Z,155.32
2019-02-19T11:45:30.887Z,157.22
2019-02-19T11:47:57.617Z,157.00
2019-02-19T11:50:24.396Z,156.60
2019-02-19T11:52:51.140Z,154.78
2019-02-19T11:55:17.944Z,156.10
2019-02-19T11:57:45.121Z,155.40
2019-02-19T12:00:15.206Z,157.32
2019-02-19T12:02:42.157Z,156.90
2019-02-19T12:05:09.018Z,156.57
2019-02-19T12:07:35.753Z,157.22
2019-02-19T12:10:02.863Z,157.47
2019-02-19T12:12:29.816Z,158.35
2019-02-19T12:14:56.699Z,157.88
2019-02-19T12:17:23.586Z,157.57
2019-02-19T12:19:50.398Z,158.30
2019-02-19T12:22:17.253Z,158.82
2019-02-19T12:24:47.647Z,159.20
2019-02-19T12:27:14.686Z,158.00
2019-02-19T12:29:41.636Z,157.43
2019-02-19T12:32:08.394Z,158.80
2019-02-19T12:34:35.220Z,158.75
2019-02-19T12:37:04.192Z,160.05
2019-02-19T12:39:31.061Z,158.70
2019-02-19T12:41:57.852Z,158.85
2019-02-19T12:44:24.663Z,159.10
2019-02-19T12:46:51.641Z,159.15
2019-02-19T12:49:18.705Z,160.10
2019-02-19T12:51:46.747Z,156.63
2019-02-19T12:54:13.500Z,157.47
2019-02-19T12:56:40.269Z,157.78
2019-02-19T12:59:07.062Z,156.70
2019-02-19T13:01:34.035Z,156.35
2019-02-19T13:04:01.102Z,160.43
2019-02-19T13:06:27.953Z,156.78
2019-02-19T13:08:54.700Z,155.87
2019-02-19T13:11:21.471Z,156.12
2019-02-19T13:13:48.319Z,155.32
2019-02-19T13:16:15.199Z,156.12
2019-02-19T13:18:42.050Z,155.10
2019-02-19T13:21:09.057Z,156.25
2019-02-19T13:23:35.800Z,157.55
2019-02-19T13:26:02.551Z,157.97
2019-02-19T13:28:32.307Z,158.05
2019-02-19T13:30:59.166Z,158.18
2019-02-19T13:33:26.160Z,156.63
2019-02-19T13:35:52.910Z,157.20
2019-02-19T13:38:19.650Z,158.82
2019-02-19T13:40:46.444Z,158.60
2019-02-19T13:43:22.342Z,157.12
2019-02-19T13:45:50.330Z,157.60
2019-02-19T13:48:17.185Z,155.63
2019-02-19T13:50:44.445Z,158.07
2019-02-19T13:53:22.173Z,157.47
2019-02-19T13:55:51.994Z,157.82
2019-02-19T13:58:20.419Z,156.80
2019-02-19T14:00:49.699Z,155.35
2019-02-19T14:03:17.898Z,154.93
2019-02-19T14:05:44.751Z,154.45
2019-02-19T14:08:14.700Z,153.18
2019-02-19T14:10:40.479Z,152.57
2019-02-19T14:13:20.576Z,151.02
2019-02-19T14:15:57.289Z,150.07
2019-02-19T14:18:43.956Z,149.65
2019-02-19T14:21:30.514Z,150.45
2019-02-19T14:24:31.896Z,149.90
2019-02-19T14:27:17.036Z,149.07
2019-02-19T14:30:02.076Z,150.12
2019-02-19T14:32:54.620Z,149.95
2019-02-19T14:35:56.428Z,148.65
2019-02-19T14:38:47.889Z,151.50
2019-02-19T14:41:33.105Z,149.20
2019-02-19T14:44:34.543Z,148.28
2019-02-19T14:47:29.990Z,150.68
2019-02-19T14:50:22.149Z,149.00
2019-02-19T14:53:08.272Z,150.25
2019-02-19T14:56:02.774Z,151.27
2019-02-19T14:58:49.302Z,150.65
2019-02-19T15:01:32.496Z,149.93
2019-02-19T15:04:17.792Z,150.75
2019-02-19T15:07:04.253Z,150.80
2019-02-19T15:10:09.215Z,152.70
2019-02-19T15:13:10.685Z,151.37
2019-02-19T15:15:50.751Z,152.47
2019-02-19T15:18:35.701Z,154.45
2019-02-19T15:21:19.297Z,153.10
2019-02-19T15:24:04.648Z,153.50
2019-02-19T15:26:54.662Z,154.68
2019-02-19T15:29:47.123Z,155.05
2019-02-19T15:32:38.620Z,152.38
2019-02-19T15:35:33.808Z,151.20
2019-02-19T15:38:22.597Z,151.15
2019-02-19T15:41:36.705Z,150.32
2019-02-19T15:44:33.200Z,150.57
2019-02-19T15:47:25.572Z,150.22
2019-02-19T15:50:10.284Z,149.02
2019-02-19T15:52:56.641Z,150.32
2019-02-19T15:55:44.448Z,148.68
2019-02-19T15:58:29.925Z,148.72
2019-02-19T16:01:17.226Z,148.90
2019-02-19T16:03:58.589Z,151.55
2019-02-19T16:06:51.074Z,149.62
2019-02-19T16:09:40.208Z,149.45
2019-02-19T16:12:21.567Z,149.60
2019-02-19T16:15:02.853Z,148.87
2019-02-19T16:18:01.507Z,148.40
2019-02-19T16:20:54.148Z,148.45
2019-02-19T16:23:37.254Z,147.98
2019-02-19T16:26:30.517Z,147.22
2019-02-19T16:29:17.022Z,148.45
2019-02-19T16:32:08.719Z,148.82
2019-02-19T16:34:54.366Z,147.53
2019-02-19T16:37:34.774Z,148.28
2019-02-19T16:40:35.491Z,146.15
2019-02-19T16:43:12.295Z,145.97
2019-02-19T16:45:50.311Z,147.47
2019-02-19T16:48:34.550Z,149.90
2019-02-19T16:51:30.014Z,145.50
2019-02-19T16:54:17.284Z,147.98
2019-02-19T16:57:07.573Z,146.15
2019-02-19T16:59:50.085Z,146.20
2019-02-19T17:02:24.426Z,148.28
2019-02-19T17:05:29.705Z,146.65
2019-02-19T17:08:19.137Z,146.98
2019-02-19T17:10:58.890Z,147.05
2019-02-19T17:14:06.336Z,145.72
2019-02-19T17:17:01.351Z,147.07
2019-02-19T17:19:41.140Z,147.53
2019-02-19T17:22:30.673Z,149.50
2019-02-19T17:25:33.733Z,148.57
2019-02-19T17:28:18.387Z,149.93
2019-02-19T17:30:56.583Z,148.72
2019-02-19T17:33:35.480Z,147.28
2019-02-19T17:36:28.116Z,147.70
2019-02-19T17:39:20.484Z,146.85
2019-02-19T17:42:10.067Z,149.30
2019-02-19T17:45:02.326Z,146.93
2019-02-19T17:47:38.081Z,147.25
2019-02-19T17:50:37.953Z,147.13
2019-02-19T17:53:24.590Z,147.90
2019-02-19T17:55:58.814Z,147.95
2019-02-19T17:58:29.220Z,148.15
2019-02-19T18:01:28.263Z,147.10
2019-02-19T18:04:12.512Z,145.53
2019-02-19T18:07:05.755Z,147.47
2019-02-19T18:09:51.835Z,146.07
2019-02-19T18:12:26.063Z,144.80
2019-02-19T18:15:11.175Z,144.87
2019-02-19T18:17:58.778Z,146.18
2019-02-19T18:20:25.584Z,145.87
2019-02-19T18:22:52.416Z,144.80
2019-02-19T18:25:19.262Z,145.65
2019-02-19T18:27:46.231Z,147.82
2019-02-19T18:30:14.481Z,147.22
2019-02-19T18:32:41.507Z,146.18
2019-02-19T18:35:08.443Z,146.28
2019-02-19T18:37:35.517Z,146.47
2019-02-19T18:40:02.415Z,146.43
2019-02-19T18:42:31.333Z,147.00
2019-02-19T18:44:58.070Z,148.68
2019-02-19T18:47:24.810Z,148.10
2019-02-19T18:49:51.698Z,146.60
2019-02-19T18:52:18.548Z,147.10
2019-02-19T18:54:45.572Z,148.60
2019-02-19T18:57:12.584Z,148.02
2019-02-19T18:59:39.324Z,146.77
2019-02-19T19:02:06.299Z,146.35
2019-02-19T19:04:33.233Z,146.30
2019-02-19T19:07:00.239Z,146.93
2019-02-19T19:09:26.967Z,148.25
2019-02-19T19:11:53.953Z,147.68
2019-02-19T19:14:21.925Z,146.93
2019-02-19T19:16:48.781Z,147.47
2019-02-19T19:19:15.811Z,149.23
2019-02-19T19:21:42.562Z,151.85
2019-02-19T19:24:09.330Z,160.67
2019-02-19T19:26:36.076Z,156.30
2019-02-19T19:29:02.914Z,151.10
2019-02-19T19:31:33.586Z,156.63
2019-02-19T19:33:59.087Z,155.35
2019-02-19T19:36:25.807Z,154.00
2019-02-19T19:38:52.758Z,152.38
2019-02-19T19:41:19.595Z,152.10
2019-02-19T19:43:46.606Z,152.87
2019-02-19T19:46:13.712Z,152.27
2019-02-19T19:48:40.493Z,154.70
2019-02-19T19:51:07.446Z,153.45
2019-02-19T19:53:34.333Z,154.05
2019-02-19T19:56:01.147Z,151.37
2019-02-19T19:58:27.919Z,152.27
2019-02-19T20:00:54.674Z,149.10
2019-02-19T20:03:21.663Z,148.38
2019-02-19T20:05:49.486Z,147.78
2019-02-19T20:08:16.234Z,147.55
2019-02-19T20:10:44.131Z,147.60
2019-02-19T20:13:10.865Z,147.57
2019-02-19T20:15:37.639Z,147.50
2019-02-19T20:18:04.487Z,147.43
2019-02-19T20:20:31.347Z,147.70
2019-02-19T20:22:58.099Z,147.57
2019-02-19T20:25:27.177Z,148.78
2019-02-19T20:27:54.318Z,148.32
2019-02-19T20:30:21.054Z,147.57
2019-02-19T20:32:47.960Z,147.85
2019-02-19T20:35:15.461Z,147.62
2019-02-19T20:37:42.326Z,148.53
2019-02-19T20:40:09.356Z,149.38
2019-02-19T20:42:36.492Z,147.05
2019-02-19T20:45:03.857Z,148.22
2019-02-19T20:47:32.668Z,145.80
2019-02-19T20:49:59.634Z,145.43
2019-02-19T20:52:26.405Z,146.05
2019-02-19T20:54:53.257Z,147.72
2019-02-19T20:57:20.095Z,148.17
2019-02-19T20:59:47.040Z,147.00
2019-02-19T21:02:14.069Z,146.98
2019-02-19T21:04:41.103Z,145.47
2019-02-19T21:07:08.225Z,145.57
2019-02-19T21:09:43.441Z,145.62
2019-02-19T21:12:04.358Z,146.05
2019-02-19T21:14:32.519Z,145.92
2019-02-19T21:16:59.390Z,146.13
2019-02-19T21:19:26.371Z,145.10
2019-02-19T21:21:53.222Z,146.43
2019-02-19T21:24:21.604Z,147.70
2019-02-19T21:26:48.753Z,147.80
2019-02-19T21:29:15.941Z,145.82
2019-02-19T21:31:42.931Z,146.85
2019-02-19T21:34:11.119Z,148.10
2019-02-19T21:36:38.187Z,146.85
2019-02-19T21:39:05.319Z,146.37
2019-02-19T21:41:34.188Z,146.28
2019-02-19T21:44:01.209Z,146.62
2019-02-19T21:46:28.173Z,145.70
2019-02-19T21:48:55.032Z,145.90
2019-02-19T21:51:22.677Z,146.07
2019-02-19T21:53:49.548Z,146.07
2019-02-19T21:56:16.415Z,145.92
2019-02-19T21:58:43.502Z,146.00
2019-02-19T22:01:10.755Z,146.43
2019-02-19T22:03:37.915Z,145.85
2019-02-19T22:06:05.972Z,145.43
2019-02-19T22:08:32.945Z,145.50
2019-02-19T22:10:59.838Z,146.43
2019-02-19T22:13:26.679Z,145.32
2019-02-19T22:15:53.554Z,145.95
2019-02-19T22:18:20.536Z,146.50
2019-02-19T22:20:58.431Z,146.13
2019-02-19T22:23:25.415Z,145.50
2019-02-19T22:25:52.277Z,145.65
2019-02-19T22:28:19.172Z,147.60
2019-02-19T22:30:46.052Z,145.32
2019-02-19T22:33:12.954Z,145.15
2019-02-19T22:35:39.723Z,146.55
2019-02-19T22:38:06.708Z,145.82
2019-02-19T22:40:33.482Z,146.18
2019-02-19T22:43:00.663Z,146.55
2019-02-19T22:45:27.622Z,146.22
2019-02-19T22:47:54.480Z,145.75
2019-02-19T22:50:21.273Z,148.60
2019-02-19T22:52:48.025Z,146.47
2019-02-19T22:55:34.569Z,148.22
2019-02-19T22:58:03.815Z,146.15
2019-02-19T23:00:50.140Z,147.37
2019-02-19T23:03:21.221Z,146.57
2019-02-19T23:05:48.189Z,147.25
2019-02-19T23:08:16.128Z,149.02
2019-02-19T23:10:43.099Z,146.77
2019-02-19T23:13:09.834Z,146.95
2019-02-19T23:15:36.697Z,146.45
2019-02-19T23:18:03.554Z,146.70
2019-02-19T23:20:30.615Z,146.22
2019-02-19T23:22:57.522Z,146.70
2019-02-19T23:25:24.690Z,146.32
2019-02-19T23:27:51.736Z,145.72
2019-02-19T23:30:18.701Z,147.15
2019-02-19T23:32:45.560Z,145.75
2019-02-19T23:35:33.900Z,146.43
2019-02-19T23:38:00.775Z,146.32
2019-02-19T23:40:27.725Z,146.32
2019-02-19T23:42:54.581Z,146.35
2019-02-19T23:45:21.438Z,147.53
2019-02-19T23:47:48.286Z,147.85
2019-02-19T23:50:15.089Z,146.15
2019-02-19T23:52:41.857Z,147.32
2019-02-19T23:55:08.708Z,148.57
2019-02-19T23:57:35.619Z,147.43
